Time;durP1;ratioP1;P1;durP2;ratioP2;P2;SDS_P1;SDS_P2;PMS_P1;PMS_P2;Temp;Humidity;BMP_temperature;BMP_pressure;BME280_temperature;BME280_humidity;BME280_pressure;Samples;Min_cycle;Max_cycle;Signal;HPM_P1;HPM_P2
2023/02/11 00:01:08;;;;;;;39.93;26.23;;;8.50;99.90;;;;;;5012438;28;20489;-70
2023/02/11 00:03:34;;;;;;;44.33;25.03;;;8.30;99.90;;;;;;5015699;28;20868;-69
2023/02/11 00:06:02;;;;;;;39.93;24.63;;;8.30;99.90;;;;;;5017263;28;20476;-70
2023/02/11 00:08:27;;;;;;;40.07;23.93;;;8.30;99.90;;;;;;5018915;28;20477;-70
2023/02/11 00:10:55;;;;;;;43.90;25.20;;;8.40;99.90;;;;;;5020409;28;20869;-71
2023/02/11 00:13:21;;;;;;;43.93;24.00;;;8.30;99.90;;;;;;5022704;28;20283;-71
2023/02/11 00:15:46;;;;;;;40.00;25.20;;;8.30;99.90;;;;;;5024624;28;20835;-71
2023/02/11 00:18:12;;;;;;;42.33;25.70;;;8.30;99.90;;;;;;5025945;28;20573;-71
2023/02/11 00:20:38;;;;;;;42.60;23.53;;;8.30;99.90;;;;;;5027599;28;20176;-71
2023/02/11 00:23:04;;;;;;;44.50;24.80;;;8.20;99.90;;;;;;5029535;28;20181;-71
2023/02/11 00:25:29;;;;;;;43.43;25.10;;;8.20;99.90;;;;;;5031057;28;20437;-71
2023/02/11 00:27:55;;;;;;;35.30;22.80;;;8.30;99.90;;;;;;5031770;28;20555;-71
2023/02/11 00:30:21;;;;;;;46.13;23.83;;;8.20;99.90;;;;;;5029467;28;20187;-71
2023/02/11 00:32:46;;;;;;;39.30;23.70;;;8.20;99.90;;;;;;5027763;28;20619;-69
2023/02/11 00:35:12;;;;;;;42.80;25.37;;;8.20;99.90;;;;;;5025950;28;20192;-68
2023/02/11 00:37:37;;;;;;;37.70;23.30;;;8.20;99.90;;;;;;5024066;28;20215;-69
2023/02/11 00:40:04;;;;;;;43.30;24.97;;;8.20;99.90;;;;;;5022501;28;20191;-69
2023/02/11 00:42:30;;;;;;;38.40;22.70;;;8.20;99.90;;;;;;5024783;28;20203;-69
2023/02/11 00:44:55;;;;;;;50.90;26.37;;;8.30;99.90;;;;;;5029405;28;20845;-69
2023/02/11 00:47:21;;;;;;;47.37;25.53;;;8.20;99.90;;;;;;5029256;28;20187;-69
2023/02/11 00:49:46;;;;;;;41.97;25.23;;;8.20;99.90;;;;;;5026585;28;20538;-68
2023/02/11 00:52:12;;;;;;;40.90;25.10;;;8.20;99.90;;;;;;5024829;28;20177;-69
2023/02/11 00:54:37;;;;;;;41.30;26.30;;;8.30;99.90;;;;;;5025180;28;20187;-70
2023/02/11 00:57:03;;;;;;;35.53;23.93;;;8.30;99.90;;;;;;5025025;28;20176;-70
2023/02/11 00:59:28;;;;;;;44.17;25.20;;;8.30;99.90;;;;;;5029058;28;20212;-70
2023/02/11 01:01:54;;;;;;;44.57;22.67;;;8.30;99.90;;;;;;5028999;28;20179;-70
2023/02/11 01:04:20;;;;;;;34.37;22.00;;;8.40;99.90;;;;;;5029455;28;20271;-69
2023/02/11 01:06:45;;;;;;;39.20;23.23;;;8.40;99.90;;;;;;5030443;28;20182;-69
2023/02/11 01:09:11;;;;;;;38.37;23.37;;;8.30;99.90;;;;;;5029458;28;20175;-69
2023/02/11 01:11:36;;;;;;;41.63;23.50;;;8.30;99.90;;;;;;5030289;28;20180;-68
2023/02/11 01:14:02;;;;;;;38.73;23.90;;;8.40;99.90;;;;;;5028593;28;21040;-69
2023/02/11 01:16:27;;;;;;;35.03;22.20;;;8.30;99.90;;;;;;5027869;28;20635;-69
2023/02/11 01:18:53;;;;;;;35.50;21.50;;;8.30;99.90;;;;;;5024396;28;20574;-69
2023/02/11 01:21:18;;;;;;;39.20;22.83;;;8.40;99.90;;;;;;5028054;28;20226;-69
2023/02/11 01:23:44;;;;;;;35.67;22.47;;;8.40;99.90;;;;;;5027927;28;20184;-69
2023/02/11 01:26:09;;;;;;;32.87;21.17;;;8.40;99.90;;;;;;5031126;28;20187;-69
2023/02/11 01:28:35;;;;;;;33.40;21.47;;;8.40;99.90;;;;;;5020747;28;20188;-69
2023/02/11 01:31:01;;;;;;;37.83;21.73;;;8.50;99.90;;;;;;5025236;28;20251;-70
2023/02/11 01:33:27;;;;;;;42.70;23.70;;;8.50;99.90;;;;;;5023561;28;20628;-69
2023/02/11 01:35:53;;;;;;;38.17;22.60;;;8.40;99.90;;;;;;5023949;28;20911;-69
2023/02/11 01:38:25;;;;;;;45.40;23.10;;;8.30;99.90;;;;;;5026315;28;20454;-69
2023/02/11 01:41:02;;;;;;;34.47;23.23;;;8.40;99.90;;;;;;5020189;28;20219;-69
2023/02/11 01:43:33;;;;;;;29.13;21.00;;;8.40;99.90;;;;;;5018512;28;20418;-69
2023/02/11 01:45:58;;;;;;;35.77;20.03;;;8.40;99.90;;;;;;5027356;28;20430;-69
2023/02/11 01:48:26;;;;;;;35.13;21.43;;;8.50;99.90;;;;;;5032694;28;20449;-69
2023/02/11 01:50:58;;;;;;;37.57;22.43;;;8.50;99.90;;;;;;5014839;28;20188;-69
2023/02/11 01:59:04;;;;;;;36.30;22.37;;;8.40;99.90;;;;;;5026125;28;20513;-68
2023/02/11 02:01:33;;;;;;;35.77;20.87;;;8.40;99.90;;;;;;5025001;28;20435;-68
2023/02/11 02:04:01;;;;;;;37.00;20.40;;;8.50;99.90;;;;;;5026734;28;20986;-68
2023/02/11 02:06:48;;;;;;;34.77;20.23;;;8.40;99.90;;;;;;5028453;28;20488;-68
2023/02/11 02:09:20;;;;;;;37.23;21.57;;;8.40;99.90;;;;;;5030627;28;20466;-68
2023/02/11 02:11:46;;;;;;;30.10;18.80;;;8.50;99.90;;;;;;5021551;28;20917;-68
2023/02/11 02:14:12;;;;;;;35.53;19.80;;;8.50;99.90;;;;;;5034290;28;20541;-68
2023/02/11 02:16:37;;;;;;;32.57;20.70;;;8.40;99.90;;;;;;5022827;28;20188;-68
2023/02/11 02:19:38;;;;;;;38.30;23.73;;;8.40;99.90;;;;;;5017708;28;20216;-68
2023/02/11 02:22:23;;;;;;;34.73;18.17;;;8.40;99.90;;;;;;4995209;28;20537;-68
2023/02/11 02:24:59;;;;;;;32.73;19.87;;;8.30;99.90;;;;;;5021758;28;20450;-69
2023/02/11 02:27:49;;;;;;;40.57;21.80;;;8.50;99.90;;;;;;5023534;28;20426;-69
2023/02/11 02:30:52;;;;;;;34.47;21.37;;;8.50;99.90;;;;;;5025699;28;20501;-69
2023/02/11 02:33:28;;;;;;;35.43;21.30;;;8.40;99.90;;;;;;5022080;28;20500;-68
2023/02/11 02:36:11;;;;;;;30.60;21.07;;;8.30;99.90;;;;;;5029430;28;20450;-68
2023/02/11 02:38:47;;;;;;;37.37;21.43;;;8.40;99.90;;;;;;5018805;28;20483;-68
2023/02/11 02:41:16;;;;;;;40.87;24.80;;;8.40;99.90;;;;;;5033444;28;20465;-68
2023/02/11 02:43:46;;;;;;;32.67;21.07;;;8.40;99.90;;;;;;5034456;28;20433;-68
2023/02/11 02:46:19;;;;;;;30.17;20.90;;;8.50;99.90;;;;;;5033186;28;20427;-68
2023/02/11 02:48:48;;;;;;;36.10;21.67;;;8.40;99.90;;;;;;5031321;28;20908;-68
2023/02/11 02:51:43;;;;;;;34.40;21.47;;;8.40;99.90;;;;;;5029293;28;20441;-68
2023/02/11 02:54:34;;;;;;;33.27;22.73;;;8.30;99.90;;;;;;5027025;28;20430;-68
2023/02/11 02:57:37;;;;;;;32.20;21.43;;;8.20;99.90;;;;;;5024935;28;20427;-69
2023/02/11 03:00:42;;;;;;;32.80;20.37;;;8.30;99.90;;;;;;5023003;28;20787;-68
2023/02/11 03:03:28;;;;;;;34.77;21.00;;;8.40;99.90;;;;;;5029225;28;20422;-68
2023/02/11 03:06:16;;;;;;;34.33;22.40;;;8.30;99.90;;;;;;5031123;28;20437;-68
2023/02/11 03:08:59;;;;;;;34.87;21.37;;;8.20;99.90;;;;;;5016366;28;20427;-68
2023/02/11 03:11:27;;;;;;;31.23;22.43;;;8.20;99.90;;;;;;5015292;28;20479;-69
2023/02/11 03:13:54;;;;;;;35.87;21.20;;;8.30;99.90;;;;;;5016640;28;20518;-69
2023/02/11 03:16:24;;;;;;;37.27;22.47;;;8.20;99.90;;;;;;5018607;28;20434;-68
2023/02/11 03:19:00;;;;;;;45.13;23.20;;;8.20;99.90;;;;;;5029504;28;20470;-68
2023/02/11 03:21:27;;;;;;;37.27;21.90;;;8.20;99.90;;;;;;5022451;28;20474;-68
2023/02/11 03:23:56;;;;;;;39.10;22.83;;;8.30;99.90;;;;;;5023729;28;20442;-68
2023/02/11 03:26:47;;;;;;;33.90;23.27;;;8.30;99.90;;;;;;5025600;28;20422;-69
2023/02/11 03:29:24;;;;;;;37.33;22.93;;;8.30;99.90;;;;;;5027589;28;20524;-69
2023/02/11 03:32:18;;;;;;;42.67;24.70;;;8.30;99.90;;;;;;5023759;28;20488;-69
2023/02/11 03:34:56;;;;;;;34.17;20.57;;;8.30;99.90;;;;;;5017019;28;20541;-69
2023/02/11 03:37:28;;;;;;;36.33;21.87;;;8.30;99.90;;;;;;5015093;28;20434;-68
2023/02/11 03:39:59;;;;;;;36.87;22.57;;;8.20;99.90;;;;;;5015447;28;20447;-68
2023/02/11 05:31:15;;;;;;;39.37;23.43;;;7.80;99.90;;;;;;5676920;23;20509;-65
2023/02/11 05:33:41;;;;;;;48.17;26.83;;;7.80;99.90;;;;;;5032242;28;20937;-66
2023/02/11 05:36:10;;;;;;;44.70;24.33;;;7.90;99.90;;;;;;5032620;28;20186;-65
2023/02/11 05:38:36;;;;;;;47.90;24.70;;;7.80;99.90;;;;;;5032442;28;20588;-65
2023/02/11 05:41:03;;;;;;;40.13;23.50;;;7.70;99.90;;;;;;5032635;28;20483;-65
2023/02/11 05:43:28;;;;;;;40.03;22.03;;;7.80;99.90;;;;;;5032162;28;20928;-65
2023/02/11 05:45:54;;;;;;;44.97;25.20;;;7.80;99.90;;;;;;5032329;28;20529;-63
2023/02/11 05:48:20;;;;;;;45.50;25.27;;;7.80;99.90;;;;;;5032391;28;20191;-63
2023/02/11 05:50:45;;;;;;;38.30;22.37;;;7.80;99.90;;;;;;5032115;28;20180;-63
2023/02/11 05:53:11;;;;;;;40.00;22.93;;;7.80;99.90;;;;;;5032403;28;20184;-63
2023/02/11 05:55:36;;;;;;;39.00;24.43;;;7.70;99.90;;;;;;5032133;28;20176;-65
2023/02/11 05:58:03;;;;;;;43.47;25.33;;;7.70;99.90;;;;;;5031994;28;20208;-65
2023/02/11 06:00:28;;;;;;;36.80;23.57;;;7.70;99.90;;;;;;5032477;28;20197;-65
2023/02/11 06:02:54;;;;;;;47.67;24.93;;;7.80;99.90;;;;;;5032359;28;20434;-65
2023/02/11 06:05:19;;;;;;;41.47;24.40;;;7.90;99.90;;;;;;5032016;28;20645;-65
2023/02/11 06:07:45;;;;;;;45.27;26.13;;;7.80;99.90;;;;;;5033212;28;20184;-65
2023/02/11 06:10:11;;;;;;;47.40;26.87;;;7.80;99.90;;;;;;5035563;28;20188;-65
2023/02/11 06:12:37;;;;;;;38.60;23.87;;;7.80;99.90;;;;;;5035961;28;20187;-65
2023/02/11 06:15:03;;;;;;;39.20;25.63;;;7.70;99.90;;;;;;5035820;28;20184;-65
2023/02/11 06:17:32;;;;;;;45.20;25.50;;;7.80;99.90;;;;;;5035801;28;20445;-63
2023/02/11 06:19:59;;;;;;;42.47;25.17;;;7.70;99.90;;;;;;5035686;28;20464;-64
2023/02/11 06:22:25;;;;;;;48.70;27.00;;;7.70;99.90;;;;;;5035421;28;20434;-63
2023/02/11 06:24:51;;;;;;;49.47;26.43;;;7.80;99.90;;;;;;5035145;28;20438;-64
2023/02/11 06:27:17;;;;;;;41.80;26.10;;;7.80;99.90;;;;;;5035104;28;20187;-64
2023/02/11 06:29:43;;;;;;;42.90;25.50;;;7.90;99.90;;;;;;5035505;28;20192;-64
2023/02/11 06:32:09;;;;;;;49.30;25.93;;;7.80;99.90;;;;;;5035063;28;20474;-64
2023/02/11 06:34:34;;;;;;;46.20;27.47;;;7.90;99.90;;;;;;5035260;28;20572;-64
2023/02/11 06:37:00;;;;;;;41.97;25.03;;;7.90;99.90;;;;;;5035467;28;20215;-64
2023/02/11 06:39:25;;;;;;;44.87;26.67;;;7.80;99.90;;;;;;5035035;28;20223;-64
2023/02/11 06:41:51;;;;;;;45.10;23.10;;;7.80;99.90;;;;;;5035140;28;20197;-64
2023/02/11 06:44:16;;;;;;;48.53;27.07;;;7.80;99.90;;;;;;5035369;28;20198;-64
2023/02/11 06:46:42;;;;;;;42.70;28.07;;;7.80;99.90;;;;;;5035015;28;20547;-64
2023/02/11 06:49:07;;;;;;;41.03;24.60;;;7.80;99.90;;;;;;5035014;28;20278;-64
2023/02/11 06:51:33;;;;;;;44.53;26.17;;;7.80;99.90;;;;;;5034900;28;20190;-64
2023/02/11 06:53:58;;;;;;;49.57;27.63;;;7.90;99.90;;;;;;5035168;28;20176;-64
2023/02/11 06:56:26;;;;;;;51.00;28.97;;;7.90;99.90;;;;;;5017089;28;20548;-64
2023/02/11 06:58:56;;;;;;;61.63;28.10;;;7.80;99.90;;;;;;5032288;28;20216;-64
2023/02/11 07:01:23;;;;;;;48.83;28.20;;;7.80;99.90;;;;;;5034939;28;20437;-63
2023/02/11 07:03:49;;;;;;;39.27;23.60;;;7.90;99.90;;;;;;5034524;28;20442;-67
2023/02/11 07:06:20;;;;;;;54.33;26.70;;;7.90;99.90;;;;;;5034893;28;20830;-67
2023/02/11 07:08:46;;;;;;;55.70;27.40;;;8.00;99.90;;;;;;5032929;28;20433;-64
2023/02/11 07:11:18;;;;;;;48.27;25.93;;;7.90;99.90;;;;;;5034715;28;20436;-64
2023/02/11 07:13:44;;;;;;;47.80;28.37;;;8.00;99.90;;;;;;5034395;28;20433;-65
2023/02/11 07:16:15;;;;;;;61.33;26.70;;;7.90;99.90;;;;;;5034535;28;20430;-65
2023/02/11 07:18:41;;;;;;;57.43;27.63;;;7.80;99.90;;;;;;5034992;28;20481;-66
2023/02/11 07:21:08;;;;;;;52.40;27.93;;;7.80;99.90;;;;;;5035478;28;20430;-63
2023/02/11 07:23:34;;;;;;;58.17;27.67;;;7.80;99.90;;;;;;5031506;28;20184;-63
2023/02/11 07:26:08;;;;;;;56.37;29.07;;;8.00;99.90;;;;;;5034127;28;21015;-63
2023/02/11 07:28:35;;;;;;;45.47;27.23;;;7.90;99.90;;;;;;5034194;28;20433;-65
2023/02/11 07:31:23;;;;;;;50.37;28.03;;;7.90;99.90;;;;;;5033960;28;20473;-64
2023/02/11 07:33:50;;;;;;;56.67;29.17;;;8.00;99.90;;;;;;5033583;28;20446;-64
2023/02/11 07:36:16;;;;;;;53.60;29.67;;;7.90;99.90;;;;;;5034780;28;20427;-64
2023/02/11 07:38:42;;;;;;;45.57;30.03;;;7.90;99.90;;;;;;5034236;28;20545;-64
2023/02/11 07:41:13;;;;;;;60.70;29.10;;;7.90;99.90;;;;;;5034279;28;20551;-64
2023/02/11 07:43:39;;;;;;;69.93;31.57;;;8.00;99.90;;;;;;5034159;28;20426;-64
2023/02/11 07:46:07;;;;;;;60.20;30.90;;;8.10;99.90;;;;;;5033949;28;21080;-64
2023/02/11 07:48:32;;;;;;;54.63;28.47;;;8.10;99.90;;;;;;5033705;28;20428;-65
2023/02/11 07:51:11;;;;;;;56.83;30.37;;;7.90;99.90;;;;;;5033810;28;20520;-64
2023/02/11 07:53:37;;;;;;;58.17;28.10;;;7.90;99.90;;;;;;5031340;28;20426;-65
2023/02/11 07:56:04;;;;;;;59.03;30.90;;;7.90;99.90;;;;;;5033838;28;20434;-64
2023/02/11 07:58:30;;;;;;;49.63;27.87;;;8.00;99.90;;;;;;5033506;28;20470;-64
2023/02/11 08:01:01;;;;;;;58.10;28.43;;;8.00;99.90;;;;;;5022775;28;20461;-64
2023/02/11 08:03:26;;;;;;;56.73;29.27;;;8.00;99.90;;;;;;5031179;28;20195;-64
2023/02/11 08:05:52;;;;;;;62.17;30.00;;;8.00;99.90;;;;;;5033368;28;20435;-64
2023/02/11 08:08:17;;;;;;;61.60;32.90;;;8.00;99.90;;;;;;5033508;28;20211;-64
2023/02/11 08:10:43;;;;;;;70.90;31.73;;;8.00;99.90;;;;;;5033342;28;20263;-64
2023/02/11 08:13:08;;;;;;;70.13;32.47;;;8.00;99.90;;;;;;5033633;28;20190;-64
2023/02/11 08:15:34;;;;;;;64.07;32.77;;;8.10;99.90;;;;;;5033489;28;20577;-64
2023/02/11 08:17:59;;;;;;;71.70;31.30;;;8.10;99.90;;;;;;5034187;28;20220;-66
2023/02/11 08:20:25;;;;;;;71.87;31.50;;;8.00;99.90;;;;;;5032076;28;20184;-64
2023/02/11 08:22:50;;;;;;;68.63;35.30;;;8.10;99.90;;;;;;5031972;28;20513;-65
2023/02/11 08:25:16;;;;;;;67.30;30.87;;;8.10;99.90;;;;;;5032316;28;20190;-69
2023/02/11 08:27:42;;;;;;;66.23;30.40;;;8.10;99.90;;;;;;5031014;28;20270;-67
2023/02/11 08:30:08;;;;;;;76.97;32.20;;;8.20;99.90;;;;;;5024310;28;20180;-68
2023/02/11 08:32:34;;;;;;;69.73;34.20;;;8.20;99.90;;;;;;5023339;28;20224;-67
2023/02/11 08:34:59;;;;;;;68.47;31.77;;;8.00;99.90;;;;;;5026292;28;20473;-67
2023/02/11 08:37:25;;;;;;;82.50;35.10;;;8.00;99.90;;;;;;5030715;28;20183;-69
2023/02/11 08:39:50;;;;;;;81.60;31.07;;;8.00;99.90;;;;;;5033553;28;20251;-67
2023/02/11 08:42:16;;;;;;;62.03;30.77;;;8.00;99.90;;;;;;5032079;28;20549;-68
2023/02/11 08:44:42;;;;;;;78.03;34.00;;;8.00;99.90;;;;;;5031601;28;20547;-67
2023/02/11 08:47:07;;;;;;;69.70;33.33;;;8.00;99.90;;;;;;5032112;28;20183;-67
2023/02/11 08:49:33;;;;;;;70.17;34.43;;;8.10;99.90;;;;;;5031727;28;20440;-65
2023/02/11 08:52:03;;;;;;;73.90;34.03;;;8.10;99.90;;;;;;5031810;28;20266;-64
2023/02/11 08:54:29;;;;;;;70.10;31.20;;;8.10;99.90;;;;;;5032063;28;20191;-67
2023/02/11 08:56:55;;;;;;;76.63;37.43;;;8.10;99.90;;;;;;5028364;28;20438;-67
2023/02/11 08:59:21;;;;;;;86.00;34.83;;;8.10;99.90;;;;;;5002956;28;21282;-66
2023/02/11 09:01:47;;;;;;;82.93;34.13;;;8.20;99.90;;;;;;5022915;28;20430;-68
2023/02/11 09:04:12;;;;;;;82.30;37.33;;;8.10;99.90;;;;;;5027637;28;20188;-67
2023/02/11 09:06:39;;;;;;;77.23;33.33;;;8.10;99.90;;;;;;5031512;28;20639;-64
2023/02/11 09:09:05;;;;;;;53.70;31.80;;;8.20;99.90;;;;;;5031670;28;20270;-65
2023/02/11 09:11:33;;;;;;;67.63;34.07;;;8.30;99.90;;;;;;5010763;28;20458;-65
2023/02/11 09:13:59;;;;;;;63.33;32.47;;;8.30;99.90;;;;;;5028616;28;20850;-65
2023/02/11 09:16:28;;;;;;;81.70;35.00;;;8.30;99.90;;;;;;5031464;28;20433;-65
2023/02/11 09:18:57;;;;;;;76.13;32.60;;;8.30;99.90;;;;;;5031546;28;20477;-65
2023/02/11 09:21:22;;;;;;;80.10;36.27;;;8.30;99.90;;;;;;5031185;28;20422;-65
2023/02/11 09:23:48;;;;;;;80.97;35.57;;;8.50;99.90;;;;;;5031407;28;20571;-65
2023/02/11 09:26:19;;;;;;;71.80;35.43;;;8.50;99.90;;;;;;5031497;28;20195;-66
2023/02/11 09:28:46;;;;;;;79.70;33.77;;;8.50;99.90;;;;;;5031548;28;20526;-66
2023/02/11 09:31:14;;;;;;;81.47;34.57;;;8.60;99.90;;;;;;5031133;28;20494;-71
2023/02/11 09:33:46;;;;;;;85.43;35.27;;;8.50;99.90;;;;;;5031532;28;20564;-65
2023/02/11 09:36:14;;;;;;;73.57;34.87;;;8.60;99.90;;;;;;5029064;28;20524;-66
2023/02/11 09:38:40;;;;;;;79.37;35.77;;;8.60;99.90;;;;;;5026216;28;20466;-65
2023/02/11 09:41:22;;;;;;;75.93;37.10;;;8.50;99.90;;;;;;5021240;28;21121;-67
2023/02/11 09:43:50;;;;;;;71.33;35.93;;;8.70;99.90;;;;;;5026902;28;20198;-66
2023/02/11 09:46:17;;;;;;;78.90;35.27;;;8.60;99.90;;;;;;5031266;28;20434;-66
2023/02/11 09:48:46;;;;;;;65.20;32.50;;;8.50;99.90;;;;;;5021716;28;20481;-66
2023/02/11 09:51:20;;;;;;;86.77;35.87;;;8.60;99.90;;;;;;5028984;28;20965;-66
2023/02/11 09:53:48;;;;;;;82.83;35.53;;;8.50;99.90;;;;;;5026403;28;20430;-66
2023/02/11 09:56:14;;;;;;;66.60;33.03;;;8.60;99.90;;;;;;5023141;28;20533;-66
2023/02/11 09:58:42;;;;;;;70.63;33.03;;;8.60;99.90;;;;;;5028921;28;20470;-66
2023/02/11 10:01:37;;;;;;;61.77;30.37;;;8.70;99.90;;;;;;5027045;28;20465;-66
2023/02/11 10:04:40;;;;;;;71.60;37.57;;;8.70;99.90;;;;;;5033378;28;20552;-65
2023/02/11 10:07:31;;;;;;;79.30;36.77;;;8.80;99.90;;;;;;5010411;28;20434;-66
2023/02/11 10:10:26;;;;;;;72.70;34.63;;;8.70;99.90;;;;;;5025050;28;20466;-66
2023/02/11 10:13:01;;;;;;;84.67;37.87;;;8.70;99.90;;;;;;5014880;28;20527;-66
2023/02/11 10:15:49;;;;;;;75.77;38.10;;;8.60;99.90;;;;;;5018754;28;20496;-63
2023/02/11 10:18:45;;;;;;;82.90;35.80;;;8.80;99.90;;;;;;5022781;28;20554;-65
2023/02/11 10:21:40;;;;;;;67.07;32.57;;;8.70;99.90;;;;;;5025021;28;20759;-64
2023/02/11 10:24:11;;;;;;;76.70;39.20;;;8.60;99.90;;;;;;5027827;28;20441;-64
2023/02/11 10:26:39;;;;;;;81.20;36.17;;;8.60;99.90;;;;;;5025975;28;20427;-61
2023/02/11 10:29:31;;;;;;;70.83;34.50;;;8.60;99.90;;;;;;5025804;28;20423;-61
2023/02/11 10:31:59;;;;;;;80.93;35.50;;;8.70;99.90;;;;;;5027027;28;20949;-62
2023/02/11 10:34:24;;;;;;;76.93;36.87;;;8.70;99.90;;;;;;5020913;28;20427;-62
2023/02/11 10:36:50;;;;;;;87.80;35.20;;;8.80;99.90;;;;;;5023251;28;20431;-62
2023/02/11 10:39:19;;;;;;;74.77;35.27;;;8.70;99.90;;;;;;5022575;28;20215;-63
2023/02/11 10:41:52;;;;;;;74.97;33.27;;;8.70;99.90;;;;;;5020901;28;20179;-62
2023/02/11 10:44:26;;;;;;;77.50;34.70;;;8.70;99.90;;;;;;5022214;28;20465;-62
2023/02/11 10:46:54;;;;;;;70.27;31.70;;;8.80;99.90;;;;;;5022885;28;20435;-63
2023/02/11 10:49:35;;;;;;;73.73;34.70;;;8.80;99.90;;;;;;5024718;28;20441;-63
2023/02/11 10:52:24;;;;;;;78.20;36.63;;;8.90;99.90;;;;;;5023186;28;20907;-62
2023/02/11 10:55:00;;;;;;;77.17;35.40;;;9.00;99.90;;;;;;5019195;28;20438;-63
2023/02/11 10:57:30;;;;;;;71.80;34.13;;;9.00;99.90;;;;;;5031067;28;20426;-63
2023/02/11 10:59:59;;;;;;;68.70;33.90;;;9.00;99.90;;;;;;5028066;28;20473;-63
2023/02/11 11:02:33;;;;;;;63.33;32.07;;;9.10;99.90;;;;;;5031396;28;21102;-64
2023/02/11 11:05:05;;;;;;;81.57;35.20;;;9.00;99.90;;;;;;5028651;28;20438;-65
2023/02/11 11:07:33;;;;;;;64.70;33.47;;;9.00;99.90;;;;;;5024392;28;20423;-65
2023/02/11 11:10:25;;;;;;;63.83;33.00;;;8.90;99.90;;;;;;5020521;28;20431;-64
2023/02/11 11:12:51;;;;;;;74.87;34.90;;;9.20;99.90;;;;;;4990787;28;20435;-64
2023/02/11 11:15:26;;;;;;;72.83;35.60;;;9.10;99.90;;;;;;5025186;28;20450;-64
2023/02/11 11:18:08;;;;;;;69.33;34.77;;;9.10;99.90;;;;;;5025637;28;20185;-65
2023/02/11 11:20:35;;;;;;;70.93;34.90;;;9.10;99.90;;;;;;5027509;28;20497;-65
2023/02/11 11:23:28;;;;;;;87.83;34.10;;;9.10;99.90;;;;;;5028380;28;20445;-63
2023/02/11 11:26:14;;;;;;;73.30;35.73;;;9.10;99.90;;;;;;5026761;28;20451;-63
2023/02/11 11:28:50;;;;;;;75.20;33.93;;;9.00;99.90;;;;;;5033385;28;20422;-62
2023/02/11 11:31:46;;;;;;;81.70;35.27;;;9.10;99.90;;;;;;5033051;28;20478;-63
2023/02/11 11:34:27;;;;;;;74.10;38.13;;;9.10;99.90;;;;;;5033234;28;20981;-63
2023/02/11 11:36:54;;;;;;;72.60;33.67;;;9.00;99.90;;;;;;5031601;28;20434;-63
2023/02/11 11:39:20;;;;;;;77.67;38.60;;;9.20;99.90;;;;;;5033066;28;20478;-62
2023/02/11 11:42:13;;;;;;;83.90;39.80;;;9.30;99.90;;;;;;5033012;28;21173;-62
2023/02/11 11:44:39;;;;;;;83.43;35.77;;;9.30;99.90;;;;;;5022016;28;20278;-63
2023/02/11 11:47:10;;;;;;;74.57;38.57;;;9.40;99.90;;;;;;5029681;28;20525;-62
2023/02/11 11:49:54;;;;;;;74.90;35.43;;;9.40;99.90;;;;;;5032984;28;20179;-62
2023/02/11 11:52:42;;;;;;;86.57;36.70;;;9.30;99.90;;;;;;5032524;28;20845;-63
2023/02/11 11:55:18;;;;;;;70.90;38.47;;;9.30;99.90;;;;;;5029192;28;20490;-63
2023/02/11 11:57:44;;;;;;;82.73;37.53;;;9.30;99.90;;;;;;5022596;28;20844;-62
2023/02/11 12:00:21;;;;;;;74.63;35.83;;;9.30;99.90;;;;;;5021401;28;20529;-62
2023/02/11 12:03:05;;;;;;;91.80;40.70;;;9.30;99.90;;;;;;5019864;28;20526;-63
2023/02/11 12:05:42;;;;;;;83.23;38.70;;;9.30;99.90;;;;;;5020336;28;20807;-62
2023/02/11 12:08:25;;;;;;;74.80;38.93;;;9.30;99.90;;;;;;5026559;28;20451;-63
2023/02/11 12:11:20;;;;;;;80.60;37.73;;;9.40;99.90;;;;;;5030601;28;20435;-63
2023/02/11 12:13:45;;;;;;;74.77;39.63;;;9.30;99.90;;;;;;5032748;28;20434;-62
2023/02/11 12:16:24;;;;;;;89.87;39.53;;;9.20;99.90;;;;;;5032766;28;20499;-63
2023/02/11 12:19:07;;;;;;;81.03;40.70;;;9.30;99.90;;;;;;5032832;28;20277;-63
2023/02/11 12:21:47;;;;;;;94.63;41.73;;;9.30;99.90;;;;;;5033476;28;20437;-63
2023/02/11 12:24:34;;;;;;;88.90;39.57;;;9.30;99.90;;;;;;5032361;28;20929;-63
2023/02/11 12:27:13;;;;;;;82.40;39.77;;;9.40;99.90;;;;;;5032533;28;20495;-63
2023/02/11 12:30:01;;;;;;;86.97;39.87;;;9.40;99.90;;;;;;5024286;28;20426;-63
2023/02/11 12:32:48;;;;;;;81.10;37.50;;;9.30;99.90;;;;;;5032153;28;20466;-63
2023/02/11 12:35:35;;;;;;;83.63;41.00;;;9.40;99.90;;;;;;5031640;28;20834;-62
2023/02/11 12:38:31;;;;;;;94.60;43.73;;;9.30;99.90;;;;;;5032954;28;20462;-62
2023/02/11 12:41:11;;;;;;;90.03;39.83;;;9.40;99.90;;;;;;5030746;28;20831;-62
2023/02/11 12:43:39;;;;;;;88.03;41.27;;;9.50;99.90;;;;;;5032659;28;20852;-63
2023/02/11 12:46:29;;;;;;;86.33;44.20;;;9.50;99.90;;;;;;5032965;28;20481;-62
2023/02/11 12:49:20;;;;;;;84.87;41.60;;;9.40;99.90;;;;;;5032770;28;20426;-63
2023/02/11 12:52:14;;;;;;;93.93;43.00;;;9.40;99.90;;;;;;5032648;28;20430;-62
2023/02/11 12:55:01;;;;;;;87.43;41.67;;;9.40;99.90;;;;;;5031505;28;20442;-62
2023/02/11 12:57:36;;;;;;;90.73;42.20;;;9.40;99.90;;;;;;5032130;28;20768;-63
2023/02/11 13:00:03;;;;;;;98.27;45.20;;;9.50;99.90;;;;;;5031767;28;20564;-62
2023/02/11 13:03:06;;;;;;;85.43;40.93;;;9.50;99.90;;;;;;5028545;28;20426;-62
2023/02/11 13:05:50;;;;;;;92.80;41.87;;;9.50;99.90;;;;;;5032001;28;20947;-63
2023/02/11 13:08:29;;;;;;;92.00;41.93;;;9.50;99.90;;;;;;5031940;28;20425;-62
2023/02/11 13:11:00;;;;;;;94.70;45.87;;;9.60;99.90;;;;;;5026238;28;20426;-62
2023/02/11 13:13:35;;;;;;;91.33;44.10;;;9.60;99.90;;;;;;5027182;28;20438;-63
2023/02/11 13:16:12;;;;;;;95.23;44.60;;;9.70;99.90;;;;;;5031261;28;20444;-62
2023/02/11 13:18:49;;;;;;;91.90;43.70;;;9.70;99.90;;;;;;5033709;28;20548;-62
2023/02/11 13:21:14;;;;;;;97.10;45.70;;;9.60;99.90;;;;;;5036275;28;20442;-65
2023/02/11 13:23:44;;;;;;;90.73;46.57;;;9.60;99.90;;;;;;5035456;28;20960;-62
2023/02/11 13:26:25;;;;;;;98.37;46.07;;;9.70;99.90;;;;;;5034359;28;20548;-63
2023/02/11 13:28:58;;;;;;;107.37;44.20;;;9.60;99.90;;;;;;5034109;28;20469;-69
2023/02/11 13:31:26;;;;;;;82.17;44.27;;;9.60;99.90;;;;;;5032622;28;20465;-67
2023/02/11 13:33:52;;;;;;;83.80;42.83;;;9.60;99.90;;;;;;5034811;28;20438;-69
2023/02/11 13:36:20;;;;;;;91.77;45.90;;;9.70;99.90;;;;;;5034708;28;20476;-66
2023/02/11 13:39:19;;;;;;;98.30;47.50;;;9.70;99.90;;;;;;5035401;28;20882;-66
2023/02/11 13:41:48;;;;;;;95.90;43.20;;;9.80;99.90;;;;;;5035747;28;20454;-67
2023/02/11 13:44:18;;;;;;;97.27;46.23;;;9.80;99.90;;;;;;5032463;28;20481;-69
2023/02/11 13:46:54;;;;;;;101.00;48.77;;;9.80;99.90;;;;;;5035809;28;20991;-69
2023/02/11 13:49:27;;;;;;;91.73;44.37;;;9.80;99.90;;;;;;5035108;28;20433;-70
2023/02/11 13:51:54;;;;;;;100.10;45.77;;;9.80;99.90;;;;;;5034983;28;20433;-69
2023/02/11 13:54:31;;;;;;;101.77;43.67;;;9.80;99.90;;;;;;5035210;28;20440;-69
2023/02/11 13:57:28;;;;;;;101.33;44.73;;;9.80;99.90;;;;;;5034812;28;20429;-70
2023/02/11 13:59:57;;;;;;;89.33;45.10;;;9.90;99.90;;;;;;5031562;28;20481;-70
2023/02/11 14:11:11;;;;;;;92.80;46.10;;;9.80;99.90;;;;;;5034473;28;20839;-70
2023/02/11 14:14:14;;;;;;;93.90;45.10;;;9.80;99.90;;;;;;5034565;28;21072;-71
2023/02/11 14:17:00;;;;;;;93.90;44.47;;;9.90;99.90;;;;;;5031304;28;20469;-71
2023/02/11 14:19:42;;;;;;;104.43;44.57;;;9.90;99.90;;;;;;5033344;28;20477;-70
2023/02/11 14:22:15;;;;;;;89.80;45.60;;;9.90;99.90;;;;;;5022326;28;20429;-71
2023/02/11 14:24:57;;;;;;;98.57;45.20;;;9.80;99.90;;;;;;5022388;28;20446;-73
2023/02/11 14:27:30;;;;;;;98.17;46.23;;;9.80;99.90;;;;;;5026643;28;20423;-73
2023/02/11 14:30:33;;;;;;;91.50;45.47;;;9.70;99.90;;;;;;5026721;28;20431;-71
2023/02/11 14:33:17;;;;;;;90.90;45.80;;;9.80;99.90;;;;;;5012357;28;20451;-71
2023/02/11 14:35:59;;;;;;;75.67;41.40;;;9.90;99.90;;;;;;5014365;28;20865;-72
2023/02/11 14:38:35;;;;;;;75.33;41.60;;;9.90;99.90;;;;;;5013804;28;20501;-71
2023/02/11 14:41:27;;;;;;;87.63;41.20;;;9.90;99.90;;;;;;5012409;28;20945;-70
2023/02/11 14:43:59;;;;;;;85.23;43.97;;;9.90;99.90;;;;;;5014723;28;20454;-72
2023/02/11 14:46:34;;;;;;;92.70;42.60;;;9.80;99.90;;;;;;5014351;28;20462;-70
2023/02/11 14:49:02;;;;;;;78.07;41.40;;;9.90;99.90;;;;;;5013920;28;20438;-72
2023/02/11 14:51:33;;;;;;;75.70;41.10;;;9.90;99.90;;;;;;5014148;28;20767;-72
2023/02/11 14:54:14;;;;;;;69.93;37.30;;;9.90;99.90;;;;;;5013623;28;20424;-70
2023/02/11 14:56:41;;;;;;;68.27;35.80;;;10.00;99.90;;;;;;5012577;28;20454;-78
2023/02/11 14:59:21;;;;;;;80.20;42.17;;;10.10;99.90;;;;;;5014065;28;20475;-72
2023/02/11 15:01:53;;;;;;;73.80;41.13;;;10.20;99.90;;;;;;5013814;28;20439;-70
2023/02/11 15:04:34;;;;;;;82.97;41.20;;;10.00;99.90;;;;;;5012142;28;20809;-71
2023/02/11 15:07:07;;;;;;;80.17;39.97;;;10.10;99.90;;;;;;5013819;28;20438;-70